createdAt,value
2019-03-24T00:03:20.177Z,4.60
2019-03-24T00:08:26.836Z,4.83
2019-03-24T00:13:33.510Z,5.40
2019-03-24T00:18:40.243Z,4.97
2019-03-24T00:23:47.071Z,5.20
2019-03-24T00:28:53.765Z,5.80
2019-03-24T00:34:00.460Z,5.37
2019-03-24T00:39:07.811Z,5.77
2019-03-24T00:44:14.612Z,5.57
2019-03-24T00:49:21.313Z,5.63
2019-03-24T00:54:27.938Z,4.80
2019-03-24T00:59:34.802Z,5.30
2019-03-24T01:04:41.537Z,5.33
2019-03-24T01:09:48.338Z,5.83
2019-03-24T01:14:54.928Z,5.37
2019-03-24T01:20:01.529Z,5.10
2019-03-24T01:25:08.573Z,5.83
2019-03-24T01:30:15.623Z,5.50
2019-03-24T01:35:22.196Z,5.47
2019-03-24T01:40:29.778Z,5.30
2019-03-24T01:45:36.532Z,4.90
2019-03-24T01:50:43.027Z,5.20
2019-03-24T01:55:51.406Z,5.73
2019-03-24T02:00:58.218Z,7.07
2019-03-24T02:06:04.969Z,5.83
2019-03-24T02:11:11.538Z,6.63
2019-03-24T02:16:18.128Z,5.57
2019-03-24T02:21:24.687Z,5.83
2019-03-24T02:26:31.193Z,6.07
2019-03-24T02:31:37.870Z,5.93
2019-03-24T02:36:44.851Z,6.30
2019-03-24T02:41:51.447Z,5.83
2019-03-24T02:46:58.074Z,6.30
2019-03-24T02:52:04.670Z,5.90
2019-03-24T02:57:11.289Z,6.43
2019-03-24T03:02:18.022Z,6.30
2019-03-24T03:07:24.680Z,6.23
2019-03-24T03:12:31.233Z,7.23
2019-03-24T03:17:37.965Z,6.13
2019-03-24T03:22:44.571Z,6.40
2019-03-24T03:27:52.286Z,6.80
2019-03-24T03:32:58.949Z,6.70
2019-03-24T03:38:05.654Z,6.43
2019-03-24T03:43:12.202Z,6.53
2019-03-24T03:48:18.850Z,6.50
2019-03-24T03:53:25.423Z,6.40
2019-03-24T03:58:32.102Z,6.73
2019-03-24T04:03:38.705Z,7.27
2019-03-24T04:08:45.314Z,7.50
2019-03-24T04:13:51.905Z,7.60
2019-03-24T04:18:58.571Z,7.60
2019-03-24T04:24:05.292Z,7.80
2019-03-24T04:29:11.958Z,7.67
2019-03-24T04:34:18.683Z,7.43
2019-03-24T04:39:25.262Z,7.17
2019-03-24T04:44:31.845Z,8.10
2019-03-24T04:49:38.540Z,7.87
2019-03-24T04:54:45.202Z,7.70
2019-03-24T04:59:51.831Z,8.23
2019-03-24T05:04:58.398Z,7.50
2019-03-24T05:10:05.281Z,8.63
2019-03-24T05:15:11.883Z,7.77
2019-03-24T05:20:18.526Z,8.20
2019-03-24T05:25:25.142Z,8.33
2019-03-24T05:30:31.893Z,8.40
2019-03-24T05:35:40.200Z,8.70
2019-03-24T05:40:47.023Z,7.97
2019-03-24T05:45:53.787Z,7.73
2019-03-24T05:51:00.210Z,7.90
2019-03-24T05:56:06.794Z,8.03
2019-03-24T06:01:13.348Z,8.23
2019-03-24T06:06:19.861Z,7.53
2019-03-24T06:11:26.518Z,7.80
2019-03-24T06:16:33.158Z,7.80
2019-03-24T06:21:39.700Z,7.77
2019-03-24T06:26:46.181Z,8.10
2019-03-24T06:31:52.725Z,8.40
2019-03-24T06:37:00.507Z,7.50
2019-03-24T06:42:07.108Z,7.93
2019-03-24T06:47:13.788Z,8.60
2019-03-24T06:52:20.494Z,7.43
2019-03-24T06:57:26.995Z,7.83
2019-03-24T07:02:33.586Z,7.43
2019-03-24T07:07:40.211Z,6.90
2019-03-24T07:12:46.765Z,7.43
2019-03-24T07:17:53.421Z,6.00
2019-03-24T07:22:59.956Z,6.27
2019-03-24T07:28:06.538Z,6.97
2019-03-24T07:33:13.165Z,5.60
2019-03-24T07:38:19.770Z,5.83
2019-03-24T07:43:26.342Z,6.17
2019-03-24T07:48:32.916Z,5.03
2019-03-24T07:53:39.761Z,5.40
2019-03-24T07:58:46.352Z,4.97
2019-03-24T08:03:52.906Z,4.27
2019-03-24T08:08:59.586Z,4.13
2019-03-24T08:14:06.531Z,4.13
2019-03-24T08:19:13.870Z,4.17
2019-03-24T08:24:20.582Z,4.37
2019-03-24T08:29:27.122Z,3.77
2019-03-24T08:34:33.823Z,4.23
2019-03-24T08:39:40.574Z,4.33
2019-03-24T08:44:47.355Z,4.60
2019-03-24T08:49:55.133Z,3.23
2019-03-24T08:55:01.828Z,3.73
2019-03-24T09:00:08.954Z,3.57
2019-03-24T09:05:15.733Z,4.00
2019-03-24T09:10:22.363Z,3.43
2019-03-24T09:15:28.927Z,4.73
2019-03-24T09:20:41.659Z,4.03
2019-03-24T09:25:43.990Z,4.20
2019-03-24T09:30:50.704Z,3.40
2019-03-24T09:35:57.356Z,4.47
2019-03-24T09:41:03.823Z,3.47
2019-03-24T09:46:10.593Z,3.60
2019-03-24T09:51:17.435Z,3.80
2019-03-24T09:56:24.188Z,3.27
2019-03-24T10:01:31.266Z,4.40
2019-03-24T10:06:37.954Z,3.00
2019-03-24T10:11:44.644Z,3.70
2019-03-24T10:16:51.266Z,3.23
2019-03-24T10:21:57.993Z,3.40
2019-03-24T10:27:04.909Z,3.50
2019-03-24T10:32:11.654Z,3.27
2019-03-24T10:37:18.309Z,3.30
2019-03-24T10:42:25.821Z,3.50
2019-03-24T10:47:32.635Z,3.43
2019-03-24T10:52:41.816Z,3.73
2019-03-24T10:57:48.539Z,3.53
2019-03-24T11:02:55.566Z,2.93
2019-03-24T11:08:02.293Z,3.90
2019-03-24T11:13:09.055Z,2.93
2019-03-24T11:18:15.809Z,3.37
2019-03-24T11:23:22.554Z,3.10
2019-03-24T11:28:30.758Z,3.53
2019-03-24T11:33:37.590Z,3.17
2019-03-24T11:38:44.227Z,3.60
2019-03-24T11:43:50.996Z,3.13
2019-03-24T11:48:59.222Z,3.73
2019-03-24T11:54:05.835Z,2.87
2019-03-24T11:59:12.563Z,2.87
2019-03-24T12:04:19.139Z,2.80
2019-03-24T12:09:25.835Z,2.60
2019-03-24T12:14:32.496Z,2.80
2019-03-24T12:19:39.157Z,2.90
2019-03-24T12:24:45.733Z,2.17
2019-03-24T12:29:52.359Z,2.33
2019-03-24T12:34:58.906Z,2.17
2019-03-24T12:40:05.790Z,3.10
2019-03-24T12:45:12.950Z,2.70
2019-03-24T12:50:30.831Z,2.17
2019-03-24T12:55:30.537Z,2.20
2019-03-24T13:00:41.200Z,2.10
2019-03-24T13:05:47.795Z,2.33
2019-03-24T13:10:54.509Z,2.10
2019-03-24T13:16:01.530Z,2.67
2019-03-24T13:21:08.262Z,1.90
2019-03-24T13:26:14.881Z,1.83
2019-03-24T13:31:21.483Z,2.37
2019-03-24T13:36:28.086Z,2.13
2019-03-24T13:41:34.655Z,2.10
2019-03-24T13:46:41.204Z,1.87
2019-03-24T13:51:47.776Z,2.20
2019-03-24T13:56:54.374Z,2.03
2019-03-24T16:52:32.069Z,2.20
2019-03-24T17:10:49.870Z,2.13
